createdAt,value
2023-07-12T00:00:17.417Z,61.47
2023-07-12T00:01:13.500Z,60.85
2023-07-12T00:02:08.316Z,60.58
2023-07-12T00:03:03.558Z,60.40
2023-07-12T00:04:01.618Z,60.36
2023-07-12T00:04:54.974Z,60.89
2023-07-12T00:05:50.109Z,61.38
2023-07-12T00:06:45.449Z,61.93
2023-07-12T00:07:44.488Z,62.11
2023-07-12T00:08:39.629Z,62.44
2023-07-12T00:09:35.034Z,62.72
2023-07-12T00:10:30.079Z,63.24
2023-07-12T00:11:25.311Z,63.73
2023-07-12T00:12:20.327Z,64.27
2023-07-12T00:13:16.443Z,64.12
2023-07-12T00:14:11.479Z,64.17
2023-07-12T00:15:06.817Z,64.12
2023-07-12T00:16:02.013Z,63.73
2023-07-12T00:16:57.204Z,63.00
2023-07-12T00:17:52.256Z,62.67
2023-07-12T00:18:47.340Z,62.81
2023-07-12T00:19:42.283Z,62.58
2023-07-12T00:20:37.301Z,62.30
2023-07-12T00:21:32.373Z,62.35
2023-07-12T00:22:27.435Z,62.53
2023-07-12T00:23:22.500Z,62.72
2023-07-12T00:24:17.497Z,62.53
2023-07-12T00:25:12.584Z,62.58
2023-07-12T00:26:07.733Z,62.25
2023-07-12T00:27:03.087Z,61.79
2023-07-12T00:27:57.896Z,61.16
2023-07-12T00:28:52.996Z,61.02
2023-07-12T00:29:48.060Z,60.45
2023-07-12T00:30:45.458Z,60.27
2023-07-12T00:31:40.621Z,60.49
2023-07-12T00:32:35.606Z,60.76
2023-07-12T00:33:30.643Z,61.16
2023-07-12T00:34:25.748Z,61.20
2023-07-12T00:35:20.741Z,60.93
2023-07-12T00:36:15.836Z,60.71
2023-07-12T00:37:11.023Z,60.62
2023-07-12T00:38:06.173Z,60.54
2023-07-12T00:39:01.259Z,60.23
2023-07-12T00:39:56.263Z,60.10
2023-07-12T00:40:51.247Z,60.32
2023-07-12T00:41:46.667Z,59.84
2023-07-12T00:42:45.737Z,60.06
2023-07-12T00:43:40.798Z,60.32
2023-07-12T00:44:35.982Z,60.49
2023-07-12T00:45:31.070Z,60.45
2023-07-12T00:46:26.345Z,60.54
2023-07-12T00:47:21.231Z,60.76
2023-07-12T00:48:16.282Z,60.93
2023-07-12T00:49:11.356Z,60.54
2023-07-12T00:50:06.429Z,60.45
2023-07-12T00:51:01.597Z,60.67
2023-07-12T00:51:56.857Z,60.76
2023-07-12T00:52:51.825Z,60.85
2023-07-12T00:53:46.899Z,61.07
2023-07-12T00:54:46.219Z,61.29
2023-07-12T00:55:41.218Z,61.47
2023-07-12T00:56:36.531Z,61.74
2023-07-12T00:57:31.566Z,62.07
2023-07-12T00:58:26.812Z,61.93
2023-07-12T00:59:21.856Z,62.11
2023-07-12T01:00:16.911Z,62.72
2023-07-12T01:01:12.061Z,62.72
2023-07-12T01:02:07.111Z,62.77
2023-07-12T01:03:02.189Z,62.81
2023-07-12T01:03:57.296Z,62.30
2023-07-12T01:04:52.128Z,62.11
2023-07-12T01:05:47.228Z,61.74
2023-07-12T01:06:42.262Z,61.47
2023-07-12T01:07:37.508Z,61.29
2023-07-12T01:08:32.976Z,61.25
2023-07-12T01:09:28.245Z,61.52
2023-07-12T01:10:23.981Z,61.47
2023-07-12T01:11:19.132Z,61.47
2023-07-12T01:12:14.493Z,61.20
2023-07-12T01:13:09.507Z,61.52
2023-07-12T01:14:04.800Z,61.56
2023-07-12T01:14:59.902Z,61.56
2023-07-12T01:15:54.968Z,61.52
2023-07-12T01:16:50.162Z,61.84
2023-07-12T01:17:48.421Z,62.07
2023-07-12T01:18:43.470Z,62.16
2023-07-12T01:19:38.671Z,62.21
2023-07-12T01:20:33.866Z,62.25
2023-07-12T01:21:28.890Z,61.88
2023-07-12T01:22:24.139Z,61.79
2023-07-12T01:23:19.041Z,61.93
2023-07-12T01:24:14.070Z,61.93
2023-07-12T01:25:09.159Z,60.98
2023-07-12T01:26:04.190Z,60.93
2023-07-12T01:27:02.056Z,61.11
2023-07-12T01:27:54.608Z,60.93
2023-07-12T01:28:49.641Z,60.06
2023-07-12T01:29:44.731Z,59.50
2023-07-12T01:30:39.774Z,59.04
2023-07-12T01:31:34.874Z,58.62
2023-07-12T01:32:29.872Z,57.65
2023-07-12T01:33:25.059Z,57.49
2023-07-12T01:34:20.387Z,57.57
2023-07-12T01:35:15.437Z,57.57
2023-07-12T01:36:10.459Z,57.93
2023-07-12T01:37:05.732Z,57.65
2023-07-12T01:38:00.629Z,57.65
2023-07-12T01:38:55.663Z,57.93
2023-07-12T01:39:50.723Z,57.81
2023-07-12T01:40:45.752Z,57.89
2023-07-12T01:41:40.806Z,57.73
2023-07-12T01:42:36.002Z,57.73
2023-07-12T01:43:30.913Z,57.81
2023-07-12T01:44:26.417Z,57.65
2023-07-12T01:45:21.584Z,57.49
2023-07-12T01:46:18.406Z,57.69
2023-07-12T01:47:13.190Z,57.29
2023-07-12T01:48:08.319Z,57.73
2023-07-12T01:49:04.028Z,58.21
2023-07-12T01:49:59.171Z,58.54
2023-07-12T01:50:54.251Z,58.54
2023-07-12T01:51:50.063Z,58.42
2023-07-12T01:52:45.307Z,58.46
2023-07-12T01:53:40.919Z,58.46
2023-07-12T01:54:36.099Z,58.79
2023-07-12T01:55:31.320Z,59.04
2023-07-12T01:56:27.053Z,59.29
2023-07-12T01:57:22.501Z,59.54
2023-07-12T01:58:17.388Z,60.01
2023-07-12T01:59:14.137Z,59.71
2023-07-12T02:00:09.306Z,59.42
2023-07-12T02:01:05.290Z,59.08
2023-07-12T02:02:00.450Z,59.25
2023-07-12T02:02:55.711Z,58.95
2023-07-12T02:03:51.541Z,58.87
2023-07-12T02:04:46.669Z,58.83
2023-07-12T02:05:42.534Z,58.70
2023-07-12T02:06:37.619Z,58.38
2023-07-12T02:07:32.942Z,58.05
2023-07-12T02:08:28.719Z,58.09
2023-07-12T02:09:23.906Z,58.05
2023-07-12T02:10:19.218Z,58.38
2023-07-12T02:11:15.252Z,58.42
2023-07-12T02:12:10.632Z,58.83
2023-07-12T02:13:06.237Z,59.08
2023-07-12T02:14:01.434Z,59.46
2023-07-12T02:14:56.730Z,59.67
2023-07-12T02:15:52.532Z,59.84
2023-07-12T02:16:47.694Z,60.40
2023-07-12T02:17:43.719Z,60.80
2023-07-12T02:18:38.771Z,60.32
2023-07-12T02:19:34.140Z,60.32
2023-07-12T02:20:29.750Z,60.14
2023-07-12T02:21:24.975Z,60.23
2023-07-12T02:22:20.149Z,60.71
2023-07-12T02:23:16.748Z,61.16
2023-07-12T02:24:11.808Z,61.61
2023-07-12T02:25:07.707Z,61.84
2023-07-12T02:26:02.834Z,62.30
2023-07-12T02:26:58.096Z,62.58
2023-07-12T02:27:53.859Z,62.91
2023-07-12T02:28:49.040Z,62.81
2023-07-12T02:29:44.243Z,62.63
2023-07-12T02:30:40.665Z,62.30
2023-07-12T02:31:35.951Z,62.11
2023-07-12T02:32:31.014Z,62.07
2023-07-12T02:33:27.608Z,61.74
2023-07-12T02:34:22.646Z,61.34
2023-07-12T02:35:18.549Z,60.85
2023-07-12T02:36:13.729Z,60.49
2023-07-12T02:38:32.595Z,53.92
2023-07-12T02:39:27.480Z,53.82
2023-07-12T02:40:22.677Z,54.92
2023-07-12T02:41:17.846Z,55.76
2023-07-12T02:42:12.976Z,56.25
2023-07-12T02:43:08.115Z,56.86
2023-07-12T02:44:03.337Z,57.25
2023-07-12T02:44:58.431Z,57.65
2023-07-12T02:45:53.627Z,57.89
2023-07-12T02:46:48.762Z,58.09
2023-07-12T02:47:43.974Z,58.17
2023-07-12T02:48:39.203Z,58.33
2023-07-12T02:49:34.463Z,58.25
2023-07-12T02:50:29.455Z,58.38
2023-07-12T02:51:24.660Z,58.50
2023-07-12T02:52:19.786Z,58.50
2023-07-12T02:53:14.980Z,58.38
2023-07-12T02:54:10.322Z,58.21
2023-07-12T02:55:05.395Z,58.21
2023-07-12T02:56:00.523Z,58.13
2023-07-12T02:56:55.732Z,58.21
2023-07-12T02:57:50.889Z,58.09
2023-07-12T02:58:46.355Z,58.25
2023-07-12T02:59:41.410Z,58.33
2023-07-12T03:00:36.454Z,58.54
2023-07-12T03:01:31.654Z,58.95
2023-07-12T03:02:26.850Z,58.75
2023-07-12T03:03:21.969Z,58.54
2023-07-12T03:04:17.210Z,58.58
2023-07-12T03:05:12.514Z,58.87
2023-07-12T03:06:07.543Z,58.99
2023-07-12T03:07:02.674Z,59.12
2023-07-12T03:07:57.859Z,59.33
2023-07-12T03:08:53.138Z,59.54
2023-07-12T03:09:48.379Z,59.63
2023-07-12T03:10:43.448Z,59.58
2023-07-12T03:11:38.694Z,59.71
2023-07-12T03:12:33.911Z,60.06
2023-07-12T03:13:29.138Z,54.42
2023-07-12T03:14:24.212Z,46.76
2023-07-12T03:15:21.192Z,41.22
2023-07-12T03:16:14.656Z,38.03
2023-07-12T03:17:09.957Z,36.00
2023-07-12T03:18:05.221Z,34.77
2023-07-12T03:19:00.687Z,33.87
2023-07-12T03:19:55.851Z,32.75
2023-07-12T03:20:50.942Z,31.49
2023-07-12T03:21:46.354Z,30.31
2023-07-12T03:22:41.329Z,30.11
2023-07-12T03:23:36.554Z,29.45
2023-07-12T03:24:31.822Z,29.37
2023-07-12T03:25:27.032Z,29.20
2023-07-12T03:26:22.252Z,29.00
2023-07-12T03:27:17.526Z,29.35
2023-07-12T03:28:12.726Z,29.35
2023-07-12T03:29:08.165Z,29.39
2023-07-12T03:30:03.445Z,29.18
2023-07-12T03:30:58.420Z,29.06
2023-07-12T03:31:53.737Z,28.98
2023-07-12T03:32:49.006Z,29.22
2023-07-12T03:33:44.324Z,29.37
2023-07-12T03:34:39.625Z,29.22
2023-07-12T03:35:35.101Z,29.12
2023-07-12T03:36:30.060Z,29.28
2023-07-12T03:37:25.360Z,29.56
2023-07-12T03:38:20.600Z,29.83
2023-07-12T03:39:16.017Z,29.87
2023-07-12T03:40:11.360Z,29.98
2023-07-12T03:41:06.925Z,30.13
2023-07-12T03:42:01.810Z,30.66
2023-07-12T03:42:57.150Z,31.05
2023-07-12T03:43:52.456Z,31.38
2023-07-12T03:44:47.812Z,31.76
2023-07-12T03:45:43.330Z,32.05
2023-07-12T03:46:38.413Z,32.55
2023-07-12T03:47:33.726Z,33.04
2023-07-12T03:48:28.965Z,33.17
2023-07-12T03:49:24.311Z,33.22
2023-07-12T03:50:19.599Z,32.91
2023-07-12T03:51:14.754Z,32.70
2023-07-12T03:52:10.125Z,32.60
2023-07-12T03:53:05.471Z,32.88
2023-07-12T03:54:00.832Z,32.65
2023-07-12T03:54:56.157Z,32.70
2023-07-12T03:55:51.545Z,32.93
2023-07-12T03:56:46.573Z,33.01
2023-07-12T03:57:41.968Z,33.12
2023-07-12T03:58:37.197Z,33.12
2023-07-12T03:59:32.744Z,33.04
2023-07-12T04:00:28.040Z,33.17
2023-07-12T04:01:23.339Z,33.33
2023-07-12T04:02:18.569Z,33.54
2023-07-12T04:03:14.062Z,33.60
2023-07-12T04:04:09.324Z,33.79
2023-07-12T04:05:04.734Z,33.87
2023-07-12T04:06:00.188Z,34.12
2023-07-12T04:06:55.421Z,33.73
2023-07-12T04:07:50.724Z,33.38
2023-07-12T04:08:46.333Z,33.44
2023-07-12T04:09:41.614Z,33.12
2023-07-12T04:10:37.032Z,33.06
2023-07-12T04:11:32.126Z,33.35
2023-07-12T04:12:27.559Z,33.52
2023-07-12T04:13:22.785Z,33.35
2023-07-12T04:14:18.188Z,33.57
2023-07-12T04:15:13.499Z,33.65
2023-07-12T04:16:09.108Z,33.41
2023-07-12T04:17:04.233Z,33.06
2023-07-12T04:18:00.005Z,33.17
2023-07-12T04:18:54.964Z,32.73
2023-07-12T04:19:50.502Z,32.78
2023-07-12T04:20:46.007Z,33.12
2023-07-12T04:21:41.190Z,33.22
2023-07-12T04:22:36.539Z,33.79
2023-07-12T04:23:31.876Z,33.73
2023-07-12T04:24:27.305Z,33.62
2023-07-12T04:25:22.605Z,33.73
2023-07-12T04:26:19.206Z,33.90
2023-07-12T04:27:13.351Z,34.63
2023-07-12T04:28:08.847Z,35.30
2023-07-12T04:29:04.263Z,36.00
2023-07-12T04:29:59.678Z,35.81
2023-07-12T04:30:55.207Z,35.97
2023-07-12T04:31:50.351Z,36.28
2023-07-12T04:32:45.724Z,37.15
2023-07-12T04:33:41.127Z,37.09
2023-07-12T04:34:39.315Z,37.19
2023-07-12T04:35:31.898Z,37.35
2023-07-12T04:36:27.343Z,37.09
2023-07-12T04:37:22.687Z,37.19
2023-07-12T04:38:18.008Z,37.32
2023-07-12T04:39:13.593Z,37.19
2023-07-12T04:40:09.013Z,37.52
2023-07-12T04:41:04.546Z,38.45
2023-07-12T04:41:59.667Z,38.96
2023-07-12T04:42:55.140Z,40.39
2023-07-12T04:43:50.417Z,40.86
2023-07-12T04:44:45.854Z,41.35
2023-07-12T04:45:41.153Z,42.06
2023-07-12T04:46:36.691Z,42.61
2023-07-12T04:47:32.048Z,42.70
2023-07-12T04:48:27.360Z,43.14
2023-07-12T04:49:22.684Z,43.50
2023-07-12T04:50:18.279Z,44.24
2023-07-12T04:51:13.667Z,43.91
2023-07-12T04:52:08.823Z,43.59
2023-07-12T04:53:04.246Z,43.41
2023-07-12T04:53:59.580Z,44.05
2023-07-12T04:54:54.963Z,44.19
2023-07-12T04:55:50.605Z,44.38
2023-07-12T04:56:45.861Z,44.90
2023-07-12T04:57:41.181Z,45.00
2023-07-12T04:58:36.490Z,44.33
2023-07-12T04:59:31.975Z,44.10
2023-07-12T05:00:27.387Z,43.91
2023-07-12T05:01:23.001Z,44.28
2023-07-12T05:02:18.078Z,44.38
2023-07-12T05:03:13.594Z,44.24
2023-07-12T05:04:08.936Z,44.47
2023-07-12T05:05:04.163Z,44.10
2023-07-12T05:06:09.817Z,44.01
2023-07-12T05:06:55.777Z,43.91
2023-07-12T05:07:50.109Z,44.01
2023-07-12T05:08:45.532Z,43.96
2023-07-12T05:09:40.854Z,44.01
2023-07-12T05:10:36.189Z,43.96
2023-07-12T05:11:31.429Z,43.59
2023-07-12T05:12:26.909Z,42.74
2023-07-12T05:13:22.122Z,42.22
2023-07-12T05:14:17.505Z,41.76
2023-07-12T05:15:12.776Z,41.31
2023-07-12T05:16:08.060Z,40.94
2023-07-12T05:17:03.446Z,40.94
2023-07-12T05:17:58.619Z,40.90
2023-07-12T05:18:53.945Z,40.86
2023-07-12T05:19:49.190Z,41.93
2023-07-12T05:20:44.460Z,43.10
2023-07-12T05:21:39.952Z,43.64
2023-07-12T05:22:35.384Z,43.64
2023-07-12T05:23:30.499Z,43.96
2023-07-12T05:24:28.494Z,44.28
2023-07-12T05:25:21.286Z,45.24
2023-07-12T05:26:16.518Z,45.54
2023-07-12T05:27:12.076Z,45.89
2023-07-12T05:28:07.219Z,46.14
2023-07-12T05:29:02.730Z,46.61
2023-07-12T05:29:58.070Z,46.95
2023-07-12T05:30:53.543Z,47.53
2023-07-12T05:31:48.770Z,48.03
2023-07-12T05:32:44.178Z,48.64
2023-07-12T05:33:39.407Z,49.07
2023-07-12T05:34:34.670Z,49.57
2023-07-12T05:35:30.119Z,49.86
2023-07-12T05:36:25.429Z,50.07
2023-07-12T05:37:20.876Z,49.51
2023-07-12T05:38:16.044Z,49.04
2023-07-12T05:39:11.541Z,49.16
2023-07-12T05:40:06.863Z,49.45
2023-07-12T05:41:02.220Z,49.16
2023-07-12T05:41:57.916Z,48.70
2023-07-12T05:42:53.036Z,48.44
2023-07-12T05:43:48.344Z,47.37
2023-07-12T05:44:43.585Z,46.71
2023-07-12T05:45:39.109Z,45.69
2023-07-12T05:46:34.538Z,44.90
2023-07-12T05:47:29.684Z,45.99
2023-07-12T05:48:24.900Z,46.50
2023-07-12T05:49:20.321Z,46.25
2023-07-12T05:50:15.584Z,45.29
2023-07-12T05:51:11.347Z,44.95
2023-07-12T05:52:06.447Z,44.19
2023-07-12T05:53:02.031Z,44.43
2023-07-12T05:53:57.083Z,44.90
2023-07-12T05:54:52.584Z,46.04
2023-07-12T05:55:47.843Z,44.81
2023-07-12T05:56:43.351Z,44.05
2023-07-12T05:57:38.702Z,42.70
2023-07-12T05:58:34.045Z,41.89
2023-07-12T05:59:29.402Z,40.86
2023-07-12T06:00:24.816Z,40.47
2023-07-12T06:01:20.120Z,39.43
2023-07-12T06:02:15.996Z,38.70
2023-07-12T06:03:11.189Z,37.93
2023-07-12T06:04:06.649Z,37.59
2023-07-12T06:05:01.804Z,38.17
2023-07-12T06:05:57.416Z,38.67
2023-07-12T06:06:52.534Z,38.31
2023-07-12T06:07:48.143Z,39.43
2023-07-12T06:08:43.289Z,39.66
2023-07-12T06:09:38.736Z,40.51
2023-07-12T06:10:34.019Z,41.26
2023-07-12T06:11:29.344Z,41.89
2023-07-12T06:12:24.801Z,42.70
2023-07-12T06:13:20.013Z,43.28
2023-07-12T06:14:15.323Z,43.91
2023-07-12T06:15:10.915Z,44.19
2023-07-12T06:16:06.375Z,44.52
2023-07-12T06:17:01.764Z,45.00
2023-07-12T06:17:57.131Z,45.10
2023-07-12T06:18:52.387Z,45.05
2023-07-12T06:19:47.719Z,44.90
2023-07-12T06:20:43.255Z,44.71
2023-07-12T06:21:38.541Z,44.66
2023-07-12T06:22:33.866Z,44.71
2023-07-12T06:23:29.164Z,44.86
2023-07-12T06:24:24.663Z,45.15
2023-07-12T06:25:19.979Z,45.54
2023-07-12T06:26:15.733Z,45.89
2023-07-12T06:27:11.040Z,46.61
2023-07-12T06:28:06.513Z,47.00
2023-07-12T06:29:01.703Z,47.59
2023-07-12T06:29:57.187Z,47.81
2023-07-12T06:30:52.510Z,48.64
2023-07-12T06:31:47.938Z,49.28
2023-07-12T06:32:43.277Z,49.33
2023-07-12T06:33:38.722Z,49.28
2023-07-12T06:34:34.045Z,49.45
2023-07-12T06:35:29.539Z,49.80
2023-07-12T06:36:25.027Z,49.69
2023-07-12T06:37:20.171Z,49.57
2023-07-12T06:38:15.674Z,49.72
2023-07-12T06:39:10.878Z,49.74
2023-07-12T06:40:06.364Z,50.41
2023-07-12T06:41:01.743Z,50.38
2023-07-12T06:41:57.099Z,50.81
2023-07-12T06:42:52.751Z,51.05
2023-07-12T06:43:48.108Z,51.72
2023-07-12T06:44:43.469Z,52.07
2023-07-12T06:45:38.782Z,52.27
2023-07-12T06:46:34.469Z,52.43
2023-07-12T06:47:29.635Z,52.60
2023-07-12T06:48:25.198Z,52.73
2023-07-12T06:49:20.570Z,52.93
2023-07-12T06:50:15.806Z,53.30
2023-07-12T06:51:11.371Z,53.24
2023-07-12T06:52:06.697Z,53.61
2023-07-12T06:53:02.302Z,53.61
2023-07-12T06:53:57.367Z,53.58
2023-07-12T06:54:52.783Z,53.78
2023-07-12T06:55:48.261Z,53.54
2023-07-12T06:56:43.568Z,53.00
2023-07-12T06:57:38.952Z,52.33
2023-07-12T06:58:34.288Z,53.07
2023-07-12T06:59:29.635Z,53.34
2023-07-12T07:00:24.984Z,53.75
2023-07-12T07:01:20.475Z,54.20
2023-07-12T07:02:15.931Z,54.52
2023-07-12T07:03:11.428Z,54.88
2023-07-12T07:04:06.547Z,54.95
2023-07-12T07:05:01.886Z,54.74
2023-07-12T07:06:00.022Z,55.03
2023-07-12T07:06:52.557Z,55.17
2023-07-12T07:07:47.903Z,55.10
2023-07-12T07:08:43.387Z,54.95
2023-07-12T07:09:38.675Z,55.06
2023-07-12T07:10:34.079Z,55.03
2023-07-12T07:11:29.433Z,55.24
2023-07-12T07:12:25.102Z,55.32
2023-07-12T07:13:20.654Z,55.47
2023-07-12T07:14:15.867Z,55.99
2023-07-12T07:15:11.522Z,55.76
2023-07-12T07:16:06.744Z,55.76
2023-07-12T07:17:02.046Z,55.72
2023-07-12T07:17:57.512Z,55.39
2023-07-12T07:18:52.895Z,55.13
2023-07-12T07:19:48.251Z,54.77
2023-07-12T07:20:45.880Z,54.52
2023-07-12T07:21:39.112Z,54.35
2023-07-12T07:22:34.712Z,53.65
2023-07-12T07:23:30.277Z,53.00
2023-07-12T07:24:25.613Z,52.53
2023-07-12T07:25:21.916Z,52.53
2023-07-12T07:26:16.686Z,52.60
2023-07-12T07:27:12.092Z,52.90
2023-07-12T07:28:07.550Z,52.63
2023-07-12T07:29:03.117Z,52.53
2023-07-12T07:29:58.258Z,52.04
2023-07-12T07:30:53.766Z,52.37
2023-07-12T07:31:49.130Z,52.37
2023-07-12T07:32:44.888Z,53.24
2023-07-12T07:33:40.396Z,53.24
2023-07-12T07:34:35.606Z,52.83
2023-07-12T07:35:30.992Z,52.53
2023-07-12T07:36:26.369Z,52.01
2023-07-12T07:37:21.919Z,51.94
2023-07-12T07:38:17.269Z,52.07
2023-07-12T07:39:12.970Z,52.07
2023-07-12T07:40:08.064Z,52.30
2023-07-12T07:41:03.540Z,52.30
2023-07-12T07:41:58.930Z,52.53
2023-07-12T07:42:54.232Z,52.07
2023-07-12T07:43:49.594Z,52.14
2023-07-12T07:44:44.944Z,51.91
2023-07-12T07:45:40.404Z,52.93
2023-07-12T07:46:35.804Z,52.90
2023-07-12T07:47:31.547Z,52.90
2023-07-12T07:48:26.789Z,53.00
2023-07-12T07:49:22.436Z,52.01
2023-07-12T07:50:17.628Z,52.37
2023-07-12T07:51:13.309Z,52.50
2023-07-12T07:52:08.737Z,53.89
2023-07-12T07:53:04.333Z,54.45
2023-07-12T07:53:59.888Z,54.52
2023-07-12T07:54:55.205Z,55.39
2023-07-12T07:55:50.740Z,56.02
2023-07-12T07:56:46.542Z,55.84
2023-07-12T07:57:41.832Z,54.99
2023-07-12T07:58:37.142Z,54.20
2023-07-12T07:59:32.817Z,54.13
2023-07-12T08:00:27.967Z,54.92
2023-07-12T08:01:23.307Z,54.92
2023-07-12T08:02:18.761Z,54.28
2023-07-12T08:03:14.184Z,55.21
2023-07-12T08:04:10.103Z,54.38
2023-07-12T08:05:05.001Z,53.78
2023-07-12T08:06:02.957Z,52.90
2023-07-12T08:06:55.958Z,54.59
2023-07-12T08:07:51.515Z,55.28
2023-07-12T08:08:47.081Z,56.29
2023-07-12T08:09:42.480Z,56.52
2023-07-12T08:10:37.744Z,57.10
2023-07-12T08:11:34.924Z,57.49
2023-07-12T08:12:28.937Z,59.33
2023-07-12T08:13:24.252Z,60.49
2023-07-12T08:14:19.629Z,60.19
2023-07-12T08:15:15.281Z,62.21
2023-07-12T08:16:10.615Z,62.44
2023-07-12T08:17:05.968Z,63.82
2023-07-12T08:18:01.499Z,64.76
2023-07-12T08:18:56.834Z,65.12
2023-07-12T08:19:52.244Z,64.66
2023-07-12T08:20:47.647Z,65.84
2023-07-12T08:21:43.170Z,65.27
2023-07-12T08:22:38.592Z,63.87
2023-07-12T08:23:34.240Z,63.82
2023-07-12T08:24:32.042Z,59.88
2023-07-12T08:25:25.135Z,61.07
2023-07-12T08:26:20.537Z,61.97
2023-07-12T08:27:16.126Z,63.15
2023-07-12T08:28:11.815Z,65.48
2023-07-12T08:29:07.107Z,65.07
2023-07-12T08:30:02.499Z,67.00
2023-07-12T08:30:58.014Z,67.98
2023-07-12T08:31:53.734Z,69.92
2023-07-12T08:32:49.330Z,70.10
2023-07-12T08:33:44.880Z,70.21
2023-07-12T08:34:40.170Z,69.34
2023-07-12T08:35:46.792Z,67.11
2023-07-12T08:36:32.202Z,67.76
2023-07-12T08:37:26.523Z,68.88
2023-07-12T08:39:45.458Z,68.88
2023-07-12T08:40:40.614Z,63.00
2023-07-12T08:41:36.095Z,62.30
2023-07-12T08:42:31.381Z,62.67
2023-07-12T08:43:27.079Z,64.12
2023-07-12T08:44:22.332Z,64.82
2023-07-12T08:45:17.470Z,64.82
2023-07-12T08:46:12.960Z,67.93
2023-07-12T08:47:08.442Z,70.57
2023-07-12T08:48:03.765Z,71.60
2023-07-12T08:48:59.169Z,70.57
2023-07-12T08:49:54.870Z,70.69
2023-07-12T08:50:50.029Z,72.60
2023-07-12T08:51:45.581Z,71.29
2023-07-12T08:52:41.021Z,71.36
2023-07-12T08:53:36.713Z,71.48
2023-07-12T08:54:31.854Z,72.03
2023-07-12T08:55:27.311Z,73.49
2023-07-12T08:56:22.703Z,73.23
2023-07-12T08:57:18.164Z,72.10
2023-07-12T08:58:14.024Z,68.54
2023-07-12T08:59:09.291Z,66.95
2023-07-12T09:00:04.554Z,68.60
2023-07-12T09:01:00.105Z,69.34
2023-07-12T09:01:55.546Z,72.91
2023-07-12T09:02:51.045Z,76.04
2023-07-12T09:03:46.401Z,72.10
2023-07-12T09:04:41.853Z,73.95
2023-07-12T09:05:37.535Z,76.18
2023-07-12T09:06:32.834Z,76.74
2023-07-12T09:07:28.246Z,78.54
2023-07-12T09:08:23.866Z,76.88
2023-07-12T09:09:19.179Z,75.35
2023-07-12T09:10:14.649Z,74.61
2023-07-12T09:11:10.221Z,73.11
2023-07-12T09:12:05.830Z,68.37
2023-07-12T09:13:01.341Z,68.21
2023-07-12T09:13:56.517Z,67.43
2023-07-12T09:14:51.885Z,72.22
2023-07-12T09:15:47.488Z,70.45
2023-07-12T09:16:43.060Z,70.69
2023-07-12T09:17:38.535Z,77.09
2023-07-12T09:18:34.173Z,81.54
2023-07-12T09:19:29.499Z,84.42
2023-07-12T09:20:24.933Z,84.94
2023-07-12T09:21:20.462Z,81.70
2023-07-12T09:22:15.697Z,81.70
2023-07-12T09:23:11.170Z,79.44
2023-07-12T09:24:06.891Z,70.16
2023-07-12T09:25:02.077Z,73.11
2023-07-12T09:25:57.586Z,73.56
2023-07-12T09:26:53.066Z,75.35
2023-07-12T09:27:48.310Z,77.45
2023-07-12T09:28:44.190Z,82.42
2023-07-12T09:29:39.226Z,81.94
2023-07-12T09:30:34.785Z,74.94
2023-07-12T09:31:30.089Z,75.42
2023-07-12T09:32:25.672Z,76.95
2023-07-12T09:33:21.675Z,79.14
2023-07-12T09:34:16.763Z,85.90
2023-07-12T09:35:12.190Z,88.08
2023-07-12T09:36:07.724Z,87.71
2023-07-12T09:37:03.145Z,89.21
2023-07-12T09:37:58.628Z,92.78
2023-07-12T09:38:54.026Z,94.14
2023-07-12T09:39:49.725Z,95.03
2023-07-12T09:40:44.869Z,97.64
2023-07-12T09:41:40.429Z,97.76
2023-07-12T09:42:35.891Z,90.66
2023-07-12T09:43:31.442Z,88.26
2023-07-12T09:44:26.899Z,87.71
2023-07-12T09:45:22.338Z,84.34
2023-07-12T09:46:17.723Z,84.00
2023-07-12T09:47:13.239Z,87.99
2023-07-12T09:48:08.793Z,86.71
2023-07-12T09:49:04.067Z,85.55
2023-07-12T09:49:59.662Z,86.17
2023-07-12T09:50:54.985Z,89.40
2023-07-12T09:51:50.414Z,88.92
2023-07-12T09:52:45.988Z,86.43
2023-07-12T09:53:41.269Z,87.52
2023-07-12T09:54:37.052Z,92.16
2023-07-12T09:55:32.072Z,97.76
2023-07-12T09:56:27.502Z,102.88
2023-07-12T09:57:22.948Z,102.88
2023-07-12T09:58:18.544Z,101.44
2023-07-12T09:59:14.263Z,96.18
2023-07-12T10:00:09.705Z,93.30
2023-07-12T10:01:05.167Z,88.64
2023-07-12T10:02:00.638Z,86.61
2023-07-12T10:02:56.062Z,91.06
2023-07-12T10:03:51.509Z,94.78
2023-07-12T10:04:47.002Z,95.76
2023-07-12T10:05:42.354Z,97.82
2023-07-12T10:06:37.938Z,97.70
2023-07-12T10:07:33.179Z,94.82
2023-07-12T10:08:28.764Z,100.22
2023-07-12T10:09:24.082Z,99.45
2023-07-12T10:10:19.746Z,103.52
2023-07-12T10:11:15.269Z,100.89
2023-07-12T10:12:10.643Z,106.43
2023-07-12T10:13:06.003Z,107.32
2023-07-12T10:14:01.611Z,111.40
2023-07-12T10:14:57.370Z,106.09
2023-07-12T10:15:52.715Z,98.74
2023-07-12T10:16:48.126Z,94.76
2023-07-12T10:17:43.648Z,89.21
2023-07-12T10:18:39.092Z,83.75
2023-07-12T10:19:34.579Z,87.25
2023-07-12T10:20:29.858Z,83.16
2023-07-12T10:21:25.383Z,79.36
2023-07-12T10:22:20.803Z,78.91
2023-07-12T10:23:16.157Z,74.61
2023-07-12T10:24:11.614Z,71.42
2023-07-12T10:25:07.026Z,69.34
2023-07-12T10:26:02.385Z,66.89
2023-07-12T10:26:57.772Z,64.22
2023-07-12T10:27:53.197Z,68.26
2023-07-12T10:28:49.917Z,67.82
2023-07-12T10:29:44.208Z,63.63
2023-07-12T10:30:39.469Z,60.01
2023-07-12T10:31:35.035Z,59.97
2023-07-12T10:32:30.425Z,58.66
2023-07-12T10:33:25.933Z,59.88
2023-07-12T10:34:21.679Z,64.12
2023-07-12T10:35:17.176Z,66.47
2023-07-12T10:36:12.400Z,67.16
2023-07-12T10:37:07.964Z,66.89
2023-07-12T10:38:04.212Z,65.58
2023-07-12T10:38:59.612Z,62.21
2023-07-12T10:39:55.157Z,66.47
2023-07-12T10:40:50.615Z,70.93
2023-07-12T10:41:45.862Z,72.85
2023-07-12T10:42:41.420Z,77.81
2023-07-12T10:43:36.861Z,79.90
2023-07-12T10:44:32.322Z,78.62
2023-07-12T10:45:27.732Z,79.21
2023-07-12T10:46:23.328Z,85.20
2023-07-12T10:47:18.131Z,90.17
2023-07-12T10:48:13.191Z,92.16
2023-07-12T10:49:08.183Z,92.99
2023-07-12T10:50:03.559Z,95.87
2023-07-12T10:50:58.387Z,85.90
2023-07-12T10:51:53.403Z,77.16
2023-07-12T10:52:48.488Z,83.16
2023-07-12T10:53:46.394Z,90.76
2023-07-12T10:54:41.109Z,95.21
2023-07-12T10:55:36.547Z,95.76
2023-07-12T10:56:31.341Z,95.58
2023-07-12T10:57:26.409Z,96.79
2023-07-12T10:58:21.506Z,95.19
2023-07-12T10:59:16.583Z,86.43
2023-07-12T11:00:11.712Z,84.68
2023-07-12T11:01:07.041Z,87.34
2023-07-12T11:02:01.914Z,88.45
2023-07-12T11:02:56.947Z,89.78
2023-07-12T11:03:52.041Z,79.29
2023-07-12T11:04:47.044Z,73.11
2023-07-12T11:05:42.118Z,77.23
2023-07-12T11:06:37.382Z,79.67
2023-07-12T11:07:32.648Z,86.08
2023-07-12T11:08:28.032Z,90.37
2023-07-12T11:09:23.866Z,91.16
2023-07-12T11:10:19.263Z,81.14
2023-07-12T11:11:14.880Z,79.14
2023-07-12T11:12:10.269Z,83.41
2023-07-12T11:13:05.754Z,91.06
2023-07-12T11:14:01.175Z,95.25
2023-07-12T11:14:56.754Z,94.28
2023-07-12T11:15:52.072Z,99.93
2023-07-12T11:16:51.727Z,107.38
2023-07-12T11:17:46.966Z,105.75
2023-07-12T11:18:42.488Z,111.18
2023-07-12T11:19:38.103Z,121.63
2023-07-12T11:20:33.640Z,128.96
2023-07-12T11:21:29.322Z,135.56
2023-07-12T11:22:24.701Z,137.69
2023-07-12T11:23:20.135Z,140.47
2023-07-12T11:24:15.654Z,120.23
2023-07-12T11:25:11.000Z,130.47
2023-07-12T11:26:06.427Z,138.37
2023-07-12T11:27:01.609Z,146.00
2023-07-12T11:27:56.445Z,146.77
2023-07-12T11:28:51.666Z,151.98
2023-07-12T11:29:46.734Z,162.01
2023-07-12T11:30:41.818Z,160.30
2023-07-12T11:31:37.142Z,154.09
2023-07-12T11:32:31.933Z,134.79
2023-07-12T11:33:27.046Z,151.43
2023-07-12T11:34:21.975Z,172.39
2023-07-12T11:35:17.085Z,176.59
2023-07-12T11:36:12.040Z,163.28
2023-07-12T11:37:07.293Z,151.43
2023-07-12T11:38:02.230Z,143.36
2023-07-12T11:38:57.316Z,144.36
2023-07-12T11:39:54.625Z,152.54
2023-07-12T11:40:50.034Z,149.80
2023-07-12T11:41:45.601Z,149.80
2023-07-12T11:42:41.398Z,168.39
2023-07-12T11:43:37.016Z,170.80
2023-07-12T11:44:32.404Z,164.57
2023-07-12T11:45:27.879Z,142.38
2023-07-12T11:46:23.610Z,135.78
2023-07-12T11:47:18.786Z,131.40
2023-07-12T11:48:14.245Z,126.32
2023-07-12T11:49:09.691Z,124.53
2023-07-12T11:50:05.421Z,115.64
2023-07-12T11:51:00.838Z,118.02
2023-07-12T11:51:56.470Z,118.02
2023-07-12T11:52:51.929Z,124.53
2023-07-12T11:53:46.949Z,135.56
2023-07-12T11:54:42.021Z,144.86